createdAt,value
2019-05-14T00:02:17.431Z,99797.11
2019-05-14T00:04:48.212Z,99801.84
2019-05-14T00:07:18.993Z,99799.25
2019-05-14T00:09:51.702Z,99796.55
2019-05-14T00:12:23.310Z,99789.11
2019-05-14T00:14:54.024Z,99788.29
2019-05-14T00:17:26.699Z,99787.35
2019-05-14T00:20:07.320Z,99788.67
2019-05-14T00:22:32.008Z,99788.67
2019-05-14T00:25:02.696Z,99785.49
2019-05-14T00:27:33.354Z,99779.58
2019-05-14T00:30:04.405Z,99781.11
2019-05-14T00:32:35.072Z,99774.13
2019-05-14T00:35:05.875Z,99774.95
2019-05-14T00:37:37.773Z,99769.41
2019-05-14T00:40:13.449Z,99769.53
2019-05-14T00:42:44.288Z,99763.17
2019-05-14T00:45:16.569Z,99762.95
2019-05-14T00:47:47.145Z,99763.16
2019-05-14T00:50:21.597Z,99764.59
2019-05-14T00:52:54.796Z,99764.23
2019-05-14T00:55:25.395Z,99767.41
2019-05-14T00:57:55.980Z,99769.66
2019-05-14T01:00:26.655Z,99765.05
2019-05-14T01:02:57.578Z,99765.74
2019-05-14T01:05:31.983Z,99764.94
2019-05-14T01:08:07.220Z,99763.86
2019-05-14T01:10:41.623Z,99768.10
2019-05-14T01:13:12.403Z,99761.38
2019-05-14T01:15:43.025Z,99763.86
2019-05-14T01:18:13.561Z,99763.14
2019-05-14T01:20:45.221Z,99755.84
2019-05-14T01:23:15.768Z,99755.47
2019-05-14T01:25:51.618Z,99759.96
2019-05-14T01:28:22.293Z,99750.88
2019-05-14T01:30:52.858Z,99745.91
2019-05-14T01:33:25.778Z,99749.69
2019-05-14T01:35:56.321Z,99749.69
2019-05-14T01:38:26.904Z,99752.98
2019-05-14T01:40:57.474Z,99745.20
2019-05-14T01:43:31.434Z,99745.67
2019-05-14T01:46:02.347Z,99743.31
2019-05-14T01:48:32.884Z,99744.12
2019-05-14T01:51:03.491Z,99740.86
2019-05-14T01:53:34.011Z,99741.69
2019-05-14T01:56:04.648Z,99746.66
2019-05-14T01:58:35.233Z,99738.33
2019-05-14T02:01:05.859Z,99738.70
2019-05-14T02:03:36.452Z,99734.77
2019-05-14T02:06:07.040Z,99735.30
2019-05-14T02:08:37.628Z,99742.91
2019-05-14T02:11:08.206Z,99744.44
2019-05-14T02:13:41.248Z,99746.33
2019-05-14T02:16:13.082Z,99747.64
2019-05-14T02:18:43.506Z,99752.92
2019-05-14T02:21:14.087Z,99752.59
2019-05-14T02:23:44.694Z,99756.95
2019-05-14T02:26:15.276Z,99755.88
2019-05-14T02:28:45.783Z,99748.60
2019-05-14T02:31:19.945Z,99752.59
2019-05-14T02:33:50.342Z,99747.27
2019-05-14T02:36:24.359Z,99746.70
2019-05-14T02:38:54.878Z,99740.63
2019-05-14T02:41:25.423Z,99744.09
2019-05-14T02:43:59.176Z,99733.63
2019-05-14T02:46:29.528Z,99738.36
2019-05-14T02:49:00.396Z,99739.14
2019-05-14T02:51:30.984Z,99732.92
2019-05-14T02:54:01.539Z,99735.23
2019-05-14T02:56:32.122Z,99734.87
2019-05-14T02:59:05.585Z,99734.13
2019-05-14T03:01:34.971Z,99736.33
2019-05-14T03:04:08.930Z,99732.72
2019-05-14T03:06:39.474Z,99743.66
2019-05-14T03:09:11.772Z,99728.84
2019-05-14T03:11:42.361Z,99726.02
2019-05-14T03:14:12.903Z,99727.80
2019-05-14T03:16:49.314Z,99732.52
2019-05-14T03:19:19.665Z,99727.94
2019-05-14T03:21:50.545Z,99729.22
2019-05-14T03:24:21.133Z,99730.98
2019-05-14T03:26:51.689Z,99727.09
2019-05-14T03:29:25.893Z,99720.55
2019-05-14T03:31:55.758Z,99717.95
2019-05-14T03:34:26.291Z,99710.41
2019-05-14T03:37:02.481Z,99711.11
2019-05-14T03:39:31.159Z,99718.63
2019-05-14T03:42:01.750Z,99708.87
2019-05-14T03:44:32.533Z,99710.39
2019-05-14T03:47:05.155Z,99706.97
2019-05-14T03:49:35.462Z,99707.30
2019-05-14T03:52:09.322Z,99701.19
2019-05-14T03:54:40.632Z,99702.02
2019-05-14T03:57:10.737Z,99698.84
2019-05-14T03:59:41.330Z,99697.67
2019-05-14T04:02:12.355Z,99692.72
2019-05-14T04:04:44.171Z,99694.56
2019-05-14T04:07:19.657Z,99695.64
2019-05-14T04:09:51.729Z,99692.94
2019-05-14T04:12:25.620Z,99696.33
2019-05-14T04:14:59.653Z,99698.82
2019-05-14T04:17:38.783Z,99691.72
2019-05-14T04:20:09.680Z,99683.72
2019-05-14T04:22:42.118Z,99687.70
2019-05-14T04:25:13.026Z,99683.36
2019-05-14T04:27:49.475Z,99691.23
2019-05-14T04:30:23.996Z,99693.72
2019-05-14T04:32:53.980Z,99693.03
2019-05-14T04:35:24.544Z,99694.55
2019-05-14T04:37:55.131Z,99699.98
2019-05-14T04:40:25.671Z,99690.81
2019-05-14T04:42:59.113Z,99700.91
2019-05-14T04:45:29.699Z,99699.00
2019-05-14T04:48:00.501Z,99706.59
2019-05-14T04:50:30.985Z,99700.12
2019-05-14T04:53:01.617Z,99704.02
2019-05-14T04:55:32.194Z,99707.22
2019-05-14T04:58:02.776Z,99709.03
2019-05-14T05:00:33.338Z,99710.00
2019-05-14T05:03:08.237Z,99705.16
2019-05-14T05:05:39.415Z,99701.86
2019-05-14T05:08:13.987Z,99693.84
2019-05-14T05:10:42.203Z,99688.89
2019-05-14T05:13:12.824Z,99690.34
2019-05-14T05:15:43.403Z,99684.12
2019-05-14T05:18:14.005Z,99683.07
2019-05-14T05:20:45.957Z,99678.68
2019-05-14T05:23:18.832Z,99678.58
2019-05-14T05:25:49.108Z,99678.72
2019-05-14T05:28:21.509Z,99671.20
2019-05-14T05:30:52.109Z,99677.59
2019-05-14T05:33:22.705Z,99671.11
2019-05-14T05:35:53.267Z,99676.42
2019-05-14T05:38:23.824Z,99680.95
2019-05-14T05:40:56.637Z,99674.69
2019-05-14T05:43:28.539Z,99676.45
2019-05-14T05:46:01.798Z,99679.88
2019-05-14T05:48:32.416Z,99672.34
2019-05-14T05:51:02.973Z,99667.08
2019-05-14T05:53:33.617Z,99661.87
2019-05-14T05:56:04.257Z,99657.62
2019-05-14T05:58:39.751Z,99662.95
2019-05-14T06:01:09.770Z,99663.52
2019-05-14T06:03:41.105Z,99663.15
2019-05-14T06:06:13.590Z,99658.19
2019-05-14T06:08:45.424Z,99657.81
2019-05-14T06:11:19.347Z,99659.81
2019-05-14T06:13:49.839Z,99653.40
2019-05-14T06:16:20.392Z,99653.26
2019-05-14T06:18:51.066Z,99653.12
2019-05-14T06:21:21.585Z,99645.42
2019-05-14T06:23:52.226Z,99650.92
2019-05-14T06:26:22.754Z,99637.25
2019-05-14T06:28:53.361Z,99637.82
2019-05-14T06:31:23.903Z,99639.65
2019-05-14T06:33:54.521Z,99638.30
2019-05-14T06:36:25.100Z,99646.62
2019-05-14T06:38:55.676Z,99645.88
2019-05-14T06:41:28.357Z,99648.99
2019-05-14T06:43:59.088Z,99647.64
2019-05-14T06:46:30.093Z,99642.41
2019-05-14T06:49:00.840Z,99640.58
2019-05-14T06:51:31.433Z,99643.48
2019-05-14T06:54:02.155Z,99643.31
2019-05-14T06:56:32.668Z,99645.62
2019-05-14T06:59:03.320Z,99631.58
2019-05-14T07:01:33.905Z,99637.29
2019-05-14T07:04:04.639Z,99633.70
2019-05-14T07:06:35.248Z,99631.38
2019-05-14T07:09:08.216Z,99633.00
2019-05-14T07:11:39.046Z,99625.23
2019-05-14T07:14:11.621Z,99621.76
2019-05-14T07:16:41.871Z,99623.22
2019-05-14T07:19:15.567Z,99622.04
2019-05-14T07:21:44.789Z,99622.95
2019-05-14T07:24:15.333Z,99620.61
2019-05-14T07:26:45.935Z,99624.25
2019-05-14T07:29:18.522Z,99629.89
2019-05-14T07:31:49.093Z,99622.73
2019-05-14T07:34:19.716Z,99620.01
2019-05-14T07:36:50.377Z,99627.67
2019-05-14T07:39:20.883Z,99613.28
2019-05-14T07:41:51.530Z,99602.41
2019-05-14T07:44:24.866Z,99607.57
2019-05-14T07:46:56.207Z,99611.40
2019-05-14T07:49:28.882Z,99601.38
2019-05-14T07:51:59.099Z,99596.55
2019-05-14T07:54:29.682Z,99604.16
2019-05-14T07:57:00.291Z,99597.57
2019-05-14T07:59:30.869Z,99592.25
2019-05-14T08:02:01.438Z,99593.14
2019-05-14T08:04:31.959Z,99585.41
2019-05-14T08:07:02.615Z,99580.78
2019-05-14T08:09:33.207Z,99580.90
2019-05-14T08:12:03.786Z,99577.36
2019-05-14T08:14:53.031Z,99569.76
2019-05-14T08:17:08.616Z,99576.80
2019-05-14T08:19:39.064Z,99568.56
2019-05-14T08:22:09.779Z,99563.17
2019-05-14T08:24:40.368Z,99555.08
2019-05-14T08:27:11.023Z,99552.70
2019-05-14T08:29:41.732Z,99556.84
2019-05-14T08:32:12.373Z,99543.33
2019-05-14T08:34:42.944Z,99547.83
2019-05-14T08:37:13.534Z,99548.00
2019-05-14T08:39:45.191Z,99543.95
2019-05-14T08:42:21.347Z,99543.82
2019-05-14T08:44:53.236Z,99540.42
2019-05-14T08:47:23.861Z,99545.73
2019-05-14T08:49:54.503Z,99542.68
2019-05-14T08:52:25.077Z,99540.41
2019-05-14T08:55:07.226Z,99541.97
2019-05-14T08:57:29.143Z,99543.52
2019-05-14T09:00:00.011Z,99541.45
2019-05-14T09:02:30.644Z,99537.88
2019-05-14T09:05:03.742Z,99537.53
2019-05-14T09:07:33.541Z,99528.73
2019-05-14T09:10:04.320Z,99538.34
2019-05-14T09:12:34.900Z,99534.78
2019-05-14T09:15:05.607Z,99536.80
2019-05-14T09:17:38.791Z,99532.55
2019-05-14T09:20:11.419Z,99528.30
2019-05-14T09:22:42.063Z,99527.64
2019-05-14T09:25:14.776Z,99533.02
2019-05-14T09:27:45.442Z,99530.39
2019-05-14T09:30:18.432Z,99534.95
2019-05-14T09:32:49.471Z,99532.84
2019-05-14T09:35:20.538Z,99539.51
2019-05-14T09:37:51.564Z,99530.16
2019-05-14T09:40:24.226Z,99526.28
2019-05-14T09:42:54.826Z,99529.80
2019-05-14T09:45:31.553Z,99520.91
2019-05-14T09:48:02.115Z,99517.17
2019-05-14T09:50:32.706Z,99514.42
2019-05-14T09:53:03.279Z,99515.09
2019-05-14T09:55:33.901Z,99518.55
2019-05-14T09:58:04.545Z,99522.66
2019-05-14T10:00:35.080Z,99515.12
2019-05-14T10:03:09.361Z,99514.64
2019-05-14T10:05:38.008Z,99505.14
2019-05-14T10:08:09.044Z,99505.30
2019-05-14T10:10:40.118Z,99501.20
2019-05-14T10:13:10.994Z,99493.02
2019-05-14T10:15:41.582Z,99504.34
2019-05-14T10:18:12.645Z,99488.27
2019-05-14T10:20:46.051Z,99495.98
2019-05-14T10:23:15.852Z,99502.39
2019-05-14T10:25:46.443Z,99506.66
2019-05-14T10:28:19.281Z,99497.45
2019-05-14T10:30:50.397Z,99490.41
2019-05-14T10:33:21.205Z,99474.48
2019-05-14T10:35:51.780Z,99478.42
2019-05-14T10:38:24.448Z,99485.29
2019-05-14T10:40:55.013Z,99482.02
2019-05-14T10:43:28.569Z,99475.61
2019-05-14T10:45:58.208Z,99478.42
2019-05-14T10:48:29.236Z,99463.64
2019-05-14T10:51:03.496Z,99446.23
2019-05-14T10:53:33.966Z,99452.14
2019-05-14T10:56:04.598Z,99441.28
2019-05-14T10:58:38.201Z,99437.64
2019-05-14T11:01:11.272Z,99434.98
2019-05-14T11:03:41.140Z,99436.09
2019-05-14T11:06:11.936Z,99420.59
2019-05-14T11:08:42.857Z,99423.75
2019-05-14T11:11:13.400Z,99420.47
2019-05-14T11:13:51.270Z,99425.42
2019-05-14T11:16:21.848Z,99424.75
2019-05-14T11:18:52.427Z,99426.70
2019-05-14T11:21:26.872Z,99428.13
2019-05-14T11:23:58.571Z,99434.33
2019-05-14T11:26:29.732Z,99428.22
2019-05-14T11:29:00.570Z,99421.02
2019-05-14T11:31:34.209Z,99430.81
2019-05-14T11:34:04.783Z,99423.91
2019-05-14T11:36:35.337Z,99424.56
2019-05-14T11:39:09.387Z,99417.31
2019-05-14T11:41:40.273Z,99408.59
2019-05-14T11:44:12.511Z,99402.23
2019-05-14T11:46:52.542Z,99410.59
2019-05-14T11:49:15.482Z,99410.90
2019-05-14T11:52:00.988Z,99412.16
2019-05-14T11:54:23.018Z,99394.78
2019-05-14T11:56:53.021Z,99400.10
2019-05-14T11:59:24.768Z,99393.27
2019-05-14T12:01:55.365Z,99397.72
2019-05-14T12:04:28.208Z,99401.57
2019-05-14T12:06:59.126Z,99393.08
2019-05-14T12:09:30.299Z,99394.43
2019-05-14T12:12:03.938Z,99397.29
2019-05-14T12:14:37.996Z,99396.11
2019-05-14T12:17:09.646Z,99389.86
2019-05-14T12:19:43.570Z,99371.59
2019-05-14T12:22:13.478Z,99382.22
2019-05-14T12:24:44.144Z,99372.44
2019-05-14T12:27:14.701Z,99370.72
2019-05-14T12:29:45.369Z,99356.83
2019-05-14T12:32:18.713Z,99363.83
2019-05-14T12:34:48.970Z,99362.67
2019-05-14T12:37:19.750Z,99358.59
2019-05-14T12:39:50.364Z,99351.60
2019-05-14T12:42:20.953Z,99352.92
2019-05-14T12:44:52.742Z,99353.73
2019-05-14T12:47:23.310Z,99346.25
2019-05-14T12:49:58.562Z,99350.78
2019-05-14T12:52:29.678Z,99347.45
2019-05-14T12:55:00.755Z,99352.22
2019-05-14T12:57:31.294Z,99345.46
2019-05-14T13:00:05.689Z,99348.05
2019-05-14T13:02:36.206Z,99350.03
2019-05-14T13:05:09.019Z,99353.62
2019-05-14T13:07:41.776Z,99352.30
2019-05-14T13:10:12.737Z,99334.50
2019-05-14T13:12:43.307Z,99334.46
2019-05-14T13:15:14.489Z,99315.64
2019-05-14T13:17:45.083Z,99321.65
2019-05-14T13:20:18.558Z,99321.53
2019-05-14T13:22:52.475Z,99315.73
2019-05-14T13:25:23.099Z,99308.41
2019-05-14T13:27:53.659Z,99292.53
2019-05-14T13:30:26.531Z,99291.95
2019-05-14T13:32:59.222Z,99300.31
2019-05-14T13:35:29.413Z,99298.70
2019-05-14T13:38:00.003Z,99292.23
2019-05-14T13:40:30.602Z,99283.60
2019-05-14T13:43:01.160Z,99292.40
2019-05-14T13:45:31.990Z,99293.72
2019-05-14T13:48:02.527Z,99295.48
2019-05-14T13:50:33.287Z,99299.37
2019-05-14T13:53:09.382Z,99299.58
2019-05-14T13:55:44.123Z,99291.66
2019-05-14T13:58:09.702Z,99285.52
2019-05-14T14:00:41.834Z,99288.59
2019-05-14T14:03:12.396Z,99291.02
2019-05-14T14:05:43.007Z,99289.91
2019-05-14T14:08:13.640Z,99284.31
2019-05-14T14:10:46.341Z,99277.98
2019-05-14T14:13:19.496Z,99276.46
2019-05-14T14:15:49.187Z,99282.67
2019-05-14T14:18:21.068Z,99275.34
2019-05-14T14:20:52.115Z,99270.86
2019-05-14T14:23:27.309Z,99269.42
2019-05-14T14:25:57.141Z,99251.73
2019-05-14T14:28:29.167Z,99267.17
2019-05-14T14:30:59.831Z,99269.81
2019-05-14T14:33:32.050Z,99266.61
2019-05-14T14:36:02.663Z,99257.55
2019-05-14T14:38:34.137Z,99237.92
2019-05-14T14:41:05.396Z,99250.48
2019-05-14T14:43:42.343Z,99259.23
2019-05-14T14:46:13.987Z,99254.66
2019-05-14T14:48:40.654Z,99249.77
2019-05-14T14:51:14.036Z,99249.48
2019-05-14T14:53:57.757Z,99253.13
2019-05-14T14:56:18.875Z,99245.79
2019-05-14T14:58:49.603Z,99247.11
2019-05-14T15:01:20.566Z,99248.64
2019-05-14T15:03:51.324Z,99253.66
2019-05-14T15:06:21.937Z,99241.86
2019-05-14T15:08:52.545Z,99236.05
2019-05-14T15:11:23.176Z,99240.88
2019-05-14T15:13:53.754Z,99225.09
2019-05-14T15:16:24.382Z,99222.43
2019-05-14T15:18:58.285Z,99223.20
2019-05-14T15:21:30.193Z,99211.73
2019-05-14T15:24:10.004Z,99208.92
2019-05-14T15:26:34.253Z,99219.51
2019-05-14T15:29:04.794Z,99202.92
2019-05-14T15:31:35.471Z,99213.55
2019-05-14T15:34:08.709Z,99216.65
2019-05-14T15:36:41.309Z,99208.64
2019-05-14T15:39:10.910Z,99212.58
2019-05-14T15:41:41.493Z,99208.16
2019-05-14T15:44:12.123Z,99210.48
2019-05-14T15:46:42.783Z,99205.70
2019-05-14T15:49:13.396Z,99208.73
2019-05-14T15:51:43.979Z,99210.27
2019-05-14T15:54:35.086Z,99206.23
2019-05-14T15:56:49.353Z,99204.23
2019-05-14T15:59:19.777Z,99195.68
2019-05-14T16:01:50.406Z,99193.25
2019-05-14T16:04:22.341Z,99181.12
2019-05-14T16:06:52.980Z,99185.98
2019-05-14T16:09:23.814Z,99192.97
2019-05-14T16:11:55.056Z,99200.03
2019-05-14T16:14:26.406Z,99190.25
2019-05-14T16:16:59.573Z,99195.28
2019-05-14T16:19:30.411Z,99193.67
2019-05-14T16:22:02.417Z,99192.35
2019-05-14T16:24:33.401Z,99192.09
2019-05-14T16:27:04.349Z,99197.72
2019-05-14T16:29:44.049Z,99174.93
2019-05-14T16:32:08.563Z,99180.86
2019-05-14T16:34:41.428Z,99187.99
2019-05-14T16:37:13.412Z,99188.00
2019-05-14T16:39:44.015Z,99182.47
2019-05-14T16:42:14.620Z,99177.13
2019-05-14T16:44:45.203Z,99186.13
2019-05-14T16:47:15.833Z,99183.17
2019-05-14T16:49:48.221Z,99173.88
2019-05-14T16:52:18.689Z,99181.84
2019-05-14T16:54:49.266Z,99178.52
2019-05-14T16:57:20.797Z,99184.16
2019-05-14T16:59:51.333Z,99180.59
2019-05-14T17:02:21.973Z,99177.78
2019-05-14T17:04:53.304Z,99175.27
2019-05-14T17:07:23.897Z,99176.91
2019-05-14T17:09:54.504Z,99176.20
2019-05-14T17:12:25.090Z,99178.55
2019-05-14T17:14:58.553Z,99181.84
2019-05-14T17:17:28.121Z,99178.88
2019-05-14T17:19:59.363Z,99179.86
2019-05-14T17:22:33.581Z,99174.64
2019-05-14T17:25:03.404Z,99179.20
2019-05-14T17:27:34.023Z,99176.25
2019-05-14T17:30:05.108Z,99178.88
2019-05-14T17:32:35.742Z,99180.66
2019-05-14T17:35:08.225Z,99181.83
2019-05-14T17:37:39.685Z,99183.73
2019-05-14T17:40:12.110Z,99187.97
2019-05-14T17:42:42.753Z,99181.15
2019-05-14T17:45:13.445Z,99183.56
2019-05-14T17:47:44.051Z,99187.51
2019-05-14T17:50:14.635Z,99181.10
2019-05-14T17:52:45.761Z,99188.55
2019-05-14T17:55:18.648Z,99185.27
2019-05-14T17:57:57.515Z,99185.52
2019-05-14T18:00:21.574Z,99180.30
2019-05-14T18:02:52.211Z,99178.98
2019-05-14T18:05:24.807Z,99172.83
2019-05-14T18:07:59.342Z,99181.05
2019-05-14T18:10:29.676Z,99179.61
2019-05-14T18:13:01.900Z,99180.09
2019-05-14T18:15:32.517Z,99174.19
2019-05-14T18:18:03.268Z,99172.87
2019-05-14T18:20:33.832Z,99178.50
2019-05-14T18:23:04.445Z,99172.26
2019-05-14T18:25:35.093Z,99177.52
2019-05-14T18:28:05.750Z,99168.19
2019-05-14T18:30:38.518Z,99175.59
2019-05-14T18:33:08.686Z,99170.04
2019-05-14T18:35:44.275Z,99174.31
2019-05-14T18:38:13.064Z,99183.39
2019-05-14T18:40:43.797Z,99174.23
2019-05-14T18:43:14.564Z,99179.33
2019-05-14T18:45:45.137Z,99178.75
2019-05-14T18:48:15.755Z,99178.13
2019-05-14T18:50:48.454Z,99176.81
2019-05-14T18:53:19.058Z,99178.50
2019-05-14T18:55:50.216Z,99175.86
2019-05-14T18:58:20.937Z,99183.47
2019-05-14T19:00:51.550Z,99182.19
2019-05-14T19:03:22.197Z,99187.36
2019-05-14T19:05:52.719Z,99189.72
2019-05-14T19:08:23.413Z,99193.05
2019-05-14T19:10:54.031Z,99187.39
2019-05-14T19:13:24.644Z,99193.17
2019-05-14T19:15:55.241Z,99191.07
2019-05-14T19:18:25.852Z,99191.84
2019-05-14T19:20:56.449Z,99188.78
2019-05-14T19:23:28.925Z,99195.24
2019-05-14T19:25:59.397Z,99194.17
2019-05-14T19:28:29.993Z,99192.41
2019-05-14T19:31:00.583Z,99195.44
2019-05-14T19:33:32.690Z,99194.56
2019-05-14T19:36:03.292Z,99194.33
2019-05-14T19:38:35.906Z,99199.62
2019-05-14T19:41:08.449Z,99202.47
2019-05-14T19:43:38.511Z,99211.86
2019-05-14T19:46:09.129Z,99202.55
2019-05-14T19:48:41.201Z,99201.15
2019-05-14T19:51:11.776Z,99204.11
2019-05-14T19:53:43.392Z,99204.59
2019-05-14T19:56:14.086Z,99205.76
2019-05-14T19:58:47.530Z,99208.53
2019-05-14T20:01:20.293Z,99200.52
2019-05-14T20:03:50.956Z,99202.81
2019-05-14T20:06:21.563Z,99206.25
2019-05-14T20:08:58.577Z,99206.39
2019-05-14T20:11:33.593Z,99215.23
2019-05-14T20:14:03.582Z,99208.03
2019-05-14T20:16:34.154Z,99213.57
2019-05-14T20:19:04.768Z,99209.64
2019-05-14T20:21:35.360Z,99208.98
2019-05-14T20:24:05.949Z,99204.03
2019-05-14T20:26:38.763Z,99208.94
2019-05-14T20:29:09.010Z,99205.14
2019-05-14T20:31:40.274Z,99202.67
2019-05-14T20:34:35.968Z,99204.94
2019-05-14T20:37:08.493Z,99204.91
2019-05-14T20:39:39.227Z,99199.63
2019-05-14T20:42:10.139Z,99203.89
2019-05-14T20:44:42.014Z,99193.89
2019-05-14T20:47:12.698Z,99200.24
2019-05-14T20:49:43.228Z,99195.19
2019-05-14T20:52:13.767Z,99198.26
2019-05-14T20:54:44.385Z,99199.66
2019-05-14T20:57:24.486Z,99194.04
2019-05-14T20:59:48.258Z,99196.45
2019-05-14T21:02:21.837Z,99204.09
2019-05-14T21:05:02.391Z,99201.48
2019-05-14T21:07:28.823Z,99207.36
2019-05-14T21:09:59.646Z,99203.06
2019-05-14T21:12:30.302Z,99200.39
2019-05-14T21:15:00.825Z,99200.70
2019-05-14T21:17:31.442Z,99205.75
2019-05-14T21:20:02.057Z,99208.50
2019-05-14T21:22:35.358Z,99209.42
2019-05-14T21:25:10.963Z,99202.48
2019-05-14T21:27:44.825Z,99199.13
2019-05-14T21:30:11.313Z,99199.66
2019-05-14T21:32:44.906Z,99200.83
2019-05-14T21:35:15.447Z,99199.53
2019-05-14T21:37:48.071Z,99192.70
2019-05-14T21:40:18.692Z,99195.05
2019-05-14T21:42:49.406Z,99204.17
2019-05-14T21:45:20.000Z,99201.95
2019-05-14T21:47:50.701Z,99204.03
2019-05-14T21:50:21.326Z,99201.68
2019-05-14T21:52:51.913Z,99202.69
2019-05-14T21:55:22.483Z,99200.02
2019-05-14T21:57:56.963Z,99198.66
2019-05-14T22:00:41.459Z,99198.86
2019-05-14T22:03:10.280Z,99198.27
2019-05-14T22:05:40.379Z,99202.66
2019-05-14T22:08:11.005Z,99200.94
2019-05-14T22:10:41.553Z,99201.81
2019-05-14T22:13:12.120Z,99195.08
2019-05-14T22:15:42.649Z,99199.01
2019-05-14T22:18:17.687Z,99194.52
2019-05-14T22:20:45.590Z,99196.11
2019-05-14T22:23:22.213Z,99195.97
2019-05-14T22:25:52.762Z,99192.90
2019-05-14T22:28:23.339Z,99187.98
2019-05-14T22:30:53.873Z,99187.69
2019-05-14T22:33:24.481Z,99190.64
2019-05-14T22:35:55.036Z,99191.41
2019-05-14T22:38:25.632Z,99187.92
2019-05-14T22:40:56.139Z,99184.87
2019-05-14T22:43:28.828Z,99189.09
2019-05-14T22:45:59.258Z,99191.77
2019-05-14T22:48:29.907Z,99185.48
2019-05-14T22:51:01.715Z,99190.53
2019-05-14T22:53:32.337Z,99187.73
2019-05-14T22:56:02.902Z,99186.05
2019-05-14T22:58:33.500Z,99188.59
2019-05-14T23:01:14.436Z,99191.25
2019-05-14T23:03:39.373Z,99191.62
2019-05-14T23:06:09.094Z,99186.20
2019-05-14T23:08:39.806Z,99185.37
2019-05-14T23:11:10.351Z,99187.02
2019-05-14T23:13:40.956Z,99187.84
2019-05-14T23:16:14.679Z,99188.95
2019-05-14T23:18:45.269Z,99192.63
2019-05-14T23:21:15.808Z,99183.05
2019-05-14T23:23:46.432Z,99189.16
2019-05-14T23:26:19.078Z,99186.08
2019-05-14T23:28:49.392Z,99188.05
2019-05-14T23:31:19.935Z,99193.25
2019-05-14T23:33:50.508Z,99196.00
2019-05-14T23:36:21.146Z,99189.43
2019-05-14T23:38:52.439Z,99185.33
2019-05-14T23:41:22.958Z,99188.28
2019-05-14T23:43:53.573Z,99178.20
2019-05-14T23:46:24.108Z,99175.00
2019-05-14T23:48:54.666Z,99177.18
2019-05-14T23:51:25.238Z,99172.93
2019-05-14T23:53:55.877Z,99173.13
2019-05-14T23:56:28.664Z,99174.51
2019-05-14T23:59:01.951Z,99171.08
